Time;durP1;ratioP1;P1;durP2;ratioP2;P2;SDS_P1;SDS_P2;PMS_P1;PMS_P2;Temp;Humidity;BMP_temperature;BMP_pressure;BME280_temperature;BME280_humidity;BME280_pressure;Samples;Min_cycle;Max_cycle;Signal;HPM_P1;HPM_P2
2023/10/23 00:00:50;;;;;;;;;;;;;;;;;;4966290;28;19922;-93
2023/10/23 00:03:15;;;;;;;;;;;;;;;;;;4968765;28;19919;-93
2023/10/23 00:05:42;;;;;;;;;;;;;;;;;;4965989;28;19915;-92
2023/10/23 00:08:08;;;;;;;;;;;;;;;;;;4970663;28;19923;-92
2023/10/23 00:10:34;;;;;;;;;;;;;;;;;;4970086;28;19918;-92
2023/10/23 00:13:03;;;;;;;;;;;;;;;;;;4964632;28;19925;-93
2023/10/23 00:15:28;;;;;;;;;;;;;;;;;;4969076;28;19926;-93
2023/10/23 00:17:57;;;;;;;;;;;;;;;;;;4977188;28;20401;-92
2023/10/23 00:20:23;;;;;;;;;;;;;;;;;;4963703;28;20038;-94
2023/10/23 00:22:49;;;;;;;;;;;;;;;;;;4975417;28;20013;-93
2023/10/23 00:25:15;;;;;;;;;;;;;;;;;;4978870;28;19918;-94
2023/10/23 00:27:41;;;;;;;;;;;;;;;;;;4969430;28;20373;-92
2023/10/23 00:30:07;;;;;;;;;;;;;;;;;;4963259;28;19918;-93
2023/10/23 00:32:33;;;;;;;;;;;;;;;;;;4967587;28;19914;-93
2023/10/23 00:34:59;;;;;;;;;;;;;;;;;;4966403;28;19918;-93
2023/10/23 00:37:25;;;;;;;;;;;;;;;;;;4965683;28;19918;-93
2023/10/23 00:39:51;;;;;;;;;;;;;;;;;;4966654;28;19993;-93
2023/10/23 00:42:17;;;;;;;;;;;;;;;;;;4967535;28;20378;-92
2023/10/23 00:44:43;;;;;;;;;;;;;;;;;;4971381;28;19922;-93
2023/10/23 00:47:09;;;;;;;;;;;;;;;;;;4968440;28;19914;-93
2023/10/23 00:49:38;;;;;;;;;;;;;;;;;;5002109;28;19926;-94
2023/10/23 00:52:32;;;;;;;;;;;;;;;;;;4982410;28;19950;-93
2023/10/23 01:00:29;;;;;;;;;;;;;;;;;;5069508;23;19973;-93
2023/10/23 05:02:48;;;;;;;;;;;;;;;;;;4962130;28;19962;-93
2023/10/23 05:05:15;;;;;;;;;;;;;;;;;;4979120;28;19926;-93
2023/10/23 05:07:42;;;;;;;;;;;;;;;;;;4979606;28;19922;-93
2023/10/23 05:10:08;;;;;;;;;;;;;;;;;;4965306;28;20008;-92
2023/10/23 05:12:37;;;;;;;;;;;;;;;;;;4979229;28;20011;-92
2023/10/23 05:15:03;;;;;;;;;;;;;;;;;;4961926;28;20370;-93
2023/10/23 05:17:29;;;;;;;;;;;;;;;;;;4960933;28;19923;-92
2023/10/23 05:19:55;;;;;;;;;;;;;;;;;;4963733;28;19941;-93
2023/10/23 05:22:21;;;;;;;;;;;;;;;;;;4964465;28;21148;-92
2023/10/23 05:24:47;;;;;;;;;;;;;;;;;;4978436;28;19933;-93
2023/10/23 05:27:13;;;;;;;;;;;;;;;;;;4959605;28;19922;-93
2023/10/23 05:29:39;;;;;;;;;;;;;;;;;;4966132;28;20358;-93
2023/10/23 05:32:05;;;;;;;;;;;;;;;;;;4965080;28;19914;-93
2023/10/23 05:34:31;;;;;;;;;;;;;;;;;;4960382;28;19926;-92
2023/10/23 05:36:57;;;;;;;;;;;;;;;;;;4962425;28;20036;-93
2023/10/23 05:39:23;;;;;;;;;;;;;;;;;;4960978;28;19997;-91
2023/10/23 05:41:49;;;;;;;;;;;;;;;;;;4973018;28;19957;-92
2023/10/23 05:44:15;;;;;;;;;;;;;;;;;;4960837;28;19918;-91
2023/10/23 05:46:41;;;;;;;;;;;;;;;;;;4978460;28;19941;-91
2023/10/23 05:49:07;;;;;;;;;;;;;;;;;;4965566;28;19918;-91
2023/10/23 05:51:33;;;;;;;;;;;;;;;;;;4980108;28;19929;-91
2023/10/23 05:53:58;;;;;;;;;;;;;;;;;;4966069;28;19918;-91
2023/10/23 05:56:24;;;;;;;;;;;;;;;;;;4956905;28;20018;-91
2023/10/23 05:58:50;;;;;;;;;;;;;;;;;;4965580;28;20017;-92
2023/10/23 06:01:16;;;;;;;;;;;;;;;;;;4966024;28;19926;-92
2023/10/23 06:03:42;;;;;;;;;;;;;;;;;;4963584;28;19969;-91
2023/10/23 06:06:08;;;;;;;;;;;;;;;;;;4966275;28;19984;-92
2023/10/23 06:08:35;;;;;;;;;;;;;;;;;;4949199;28;19925;-92
2023/10/23 06:11:00;;;;;;;;;;;;;;;;;;4963692;28;19929;-91
2023/10/23 06:13:26;;;;;;;;;;;;;;;;;;4963907;28;19919;-91
2023/10/23 06:15:53;;;;;;;;;;;;;;;;;;4965896;28;20573;-91
2023/10/23 06:18:19;;;;;;;;;;;;;;;;;;4959589;28;19922;-91
2023/10/23 06:20:45;;;;;;;;;;;;;;;;;;4961540;28;20029;-91
2023/10/23 06:23:11;;;;;;;;;;;;;;;;;;4960076;28;20009;-92
2023/10/23 06:25:37;;;;;;;;;;;;;;;;;;4962194;28;19941;-92
2023/10/23 06:28:03;;;;;;;;;;;;;;;;;;4965154;28;19918;-91
2023/10/23 06:30:29;;;;;;;;;;;;;;;;;;4966355;28;19925;-91
2023/10/23 06:32:55;;;;;;;;;;;;;;;;;;4947547;28;20387;-92
2023/10/23 06:35:21;;;;;;;;;;;;;;;;;;4948616;28;19928;-91
2023/10/23 06:37:48;;;;;;;;;;;;;;;;;;4947408;28;19918;-92
2023/10/23 06:40:14;;;;;;;;;;;;;;;;;;4965114;28;19938;-93
2023/10/23 06:42:40;;;;;;;;;;;;;;;;;;4967633;28;19922;-93
2023/10/23 06:45:06;;;;;;;;;;;;;;;;;;4963279;28;19973;-92
2023/10/23 06:47:33;;;;;;;;;;;;;;;;;;4945518;28;20310;-93
2023/10/23 06:50:01;;;;;;;;;;;;;;;;;;4949206;28;20066;-91
2023/10/23 06:52:27;;;;;;;;;;;;;;;;;;4948667;28;19976;-91
2023/10/23 06:54:53;;;;;;;;;;;;;;;;;;4963583;28;19914;-91
2023/10/23 06:57:19;;;;;;;;;;;;;;;;;;4961506;28;19914;-92
2023/10/23 06:59:45;;;;;;;;;;;;;;;;;;4949686;28;19918;-92
2023/10/23 07:02:11;;;;;;;;;;;;;;;;;;4964854;28;19926;-91
2023/10/23 07:04:37;;;;;;;;;;;;;;;;;;4947579;28;20441;-91
2023/10/23 07:07:03;;;;;;;;;;;;;;;;;;4960745;28;20058;-91
2023/10/23 07:09:29;;;;;;;;;;;;;;;;;;4964007;28;20082;-91
2023/10/23 07:11:55;;;;;;;;;;;;;;;;;;4963913;28;19954;-91
2023/10/23 07:14:22;;;;;;;;;;;;;;;;;;4963225;28;19929;-91
2023/10/23 07:16:48;;;;;;;;;;;;;;;;;;4960934;28;20600;-92
2023/10/23 07:19:14;;;;;;;;;;;;;;;;;;4947738;28;20290;-92
2023/10/23 07:21:40;;;;;;;;;;;;;;;;;;4962653;28;19969;-92
2023/10/23 07:24:06;;;;;;;;;;;;;;;;;;4962431;28;20469;-92
2023/10/23 07:26:32;;;;;;;;;;;;;;;;;;4946903;28;19922;-92
2023/10/23 07:28:59;;;;;;;;;;;;;;;;;;4963538;28;20070;-92
2023/10/23 07:31:25;;;;;;;;;;;;;;;;;;4959737;28;19919;-91
2023/10/23 07:34:07;;;;;;;;;;;;;;;;;;4961566;28;22393;-91
2023/10/23 07:36:37;;;;;;;;;;;;;;;;;;4962082;28;19940;-91
2023/10/23 07:39:03;;;;;;;;;;;;;;;;;;4945365;28;19949;-92
2023/10/23 07:41:30;;;;;;;;;;;;;;;;;;4962079;28;20024;-92
2023/10/23 07:43:56;;;;;;;;;;;;;;;;;;4944303;28;19922;-92
2023/10/23 07:46:22;;;;;;;;;;;;;;;;;;4962033;28;20275;-91
2023/10/23 07:48:48;;;;;;;;;;;;;;;;;;4960422;28;19923;-92
2023/10/23 07:51:14;;;;;;;;;;;;;;;;;;4961125;28;19926;-91
2023/10/23 07:53:40;;;;;;;;;;;;;;;;;;4959861;28;19919;-92
2023/10/23 07:56:06;;;;;;;;;;;;;;;;;;4963943;28;19915;-92
2023/10/23 07:58:32;;;;;;;;;;;;;;;;;;4947067;28;20019;-92
2023/10/23 08:00:58;;;;;;;;;;;;;;;;;;4949651;28;19921;-91
2023/10/23 08:03:24;;;;;;;;;;;;;;;;;;4947456;28;19996;-91
2023/10/23 08:05:50;;;;;;;;;;;;;;;;;;4966446;28;19941;-91
2023/10/23 08:08:16;;;;;;;;;;;;;;;;;;4963915;28;19919;-92
2023/10/23 08:10:42;;;;;;;;;;;;;;;;;;4943466;28;20012;-92
2023/10/23 08:13:08;;;;;;;;;;;;;;;;;;4941057;28;19915;-91
2023/10/23 08:15:34;;;;;;;;;;;;;;;;;;4960773;28;19929;-91
2023/10/23 08:18:01;;;;;;;;;;;;;;;;;;4951251;28;20106;-92
2023/10/23 08:20:26;;;;;;;;;;;;;;;;;;4946958;28;19946;-91
2023/10/23 08:22:52;;;;;;;;;;;;;;;;;;4961000;28;19918;-91
2023/10/23 08:25:19;;;;;;;;;;;;;;;;;;4960554;28;20391;-91
2023/10/23 08:27:45;;;;;;;;;;;;;;;;;;4963256;28;19965;-92
2023/10/23 08:30:11;;;;;;;;;;;;;;;;;;4961976;28;19923;-92
2023/10/23 08:32:37;;;;;;;;;;;;;;;;;;4946310;28;20049;-92
2023/10/23 08:35:03;;;;;;;;;;;;;;;;;;4942859;28;19914;-92
2023/10/23 08:37:29;;;;;;;;;;;;;;;;;;4945864;28;19914;-92
2023/10/23 08:39:55;;;;;;;;;;;;;;;;;;4960267;28;19918;-91
2023/10/23 08:42:42;;;;;;;;;;;;;;;;;;4962180;28;19919;-92
2023/10/23 08:45:07;;;;;;;;;;;;;;;;;;4944456;28;19923;-91
2023/10/23 08:47:33;;;;;;;;;;;;;;;;;;4945537;28;19914;-91
2023/10/23 08:50:01;;;;;;;;;;;;;;;;;;4944228;28;19918;-91
2023/10/23 08:52:28;;;;;;;;;;;;;;;;;;4959113;28;19937;-92
2023/10/23 08:54:54;;;;;;;;;;;;;;;;;;4961284;28;19918;-91
2023/10/23 08:57:20;;;;;;;;;;;;;;;;;;4939468;28;20030;-92
2023/10/23 08:59:46;;;;;;;;;;;;;;;;;;4962851;28;19937;-92
2023/10/23 09:02:12;;;;;;;;;;;;;;;;;;4963247;28;20398;-92
2023/10/23 09:04:38;;;;;;;;;;;;;;;;;;4960606;28;20453;-92
2023/10/23 09:07:04;;;;;;;;;;;;;;;;;;4962384;28;19925;-91
2023/10/23 09:09:30;;;;;;;;;;;;;;;;;;4961876;28;20612;-93
2023/10/23 09:11:57;;;;;;;;;;;;;;;;;;4962350;28;19918;-93
2023/10/23 09:14:23;;;;;;;;;;;;;;;;;;4945316;28;19944;-94
2023/10/23 09:16:50;;;;;;;;;;;;;;;;;;4959854;28;19976;-94
2023/10/23 09:19:19;;;;;;;;;;;;;;;;;;4959228;28;19923;-93
2023/10/23 09:21:45;;;;;;;;;;;;;;;;;;4946368;28;20488;-93
2023/10/23 09:24:11;;;;;;;;;;;;;;;;;;4962402;28;19919;-93
2023/10/23 09:26:37;;;;;;;;;;;;;;;;;;4964682;28;19914;-94
2023/10/23 09:29:03;;;;;;;;;;;;;;;;;;4964624;28;19914;-94
2023/10/23 09:31:29;;;;;;;;;;;;;;;;;;4965699;28;19961;-93
2023/10/23 09:33:55;;;;;;;;;;;;;;;;;;4963453;28;19958;-94
2023/10/23 09:36:21;;;;;;;;;;;;;;;;;;4965369;28;19919;-93
2023/10/23 09:38:47;;;;;;;;;;;;;;;;;;4964821;28;19922;-94
2023/10/23 09:41:13;;;;;;;;;;;;;;;;;;4965129;28;19998;-93
2023/10/23 09:43:39;;;;;;;;;;;;;;;;;;4964790;28;19961;-93
2023/10/23 09:46:07;;;;;;;;;;;;;;;;;;4964597;28;19989;-93
2023/10/23 09:48:33;;;;;;;;;;;;;;;;;;4966000;28;19923;-94
2023/10/23 09:51:00;;;;;;;;;;;;;;;;;;4964889;28;19919;-93
2023/10/23 09:53:26;;;;;;;;;;;;;;;;;;4964483;28;19966;-94
2023/10/23 09:55:54;;;;;;;;;;;;;;;;;;4950384;28;19914;-94
2023/10/23 09:58:26;;;;;;;;;;;;;;;;;;4966592;28;19962;-95
2023/10/23 10:00:55;;;;;;;;;;;;;;;;;;4949976;28;20379;-93
2023/10/23 10:03:21;;;;;;;;;;;;;;;;;;4951548;28;19949;-93
2023/10/23 10:05:47;;;;;;;;;;;;;;;;;;4945983;28;19922;-94
2023/10/23 10:08:13;;;;;;;;;;;;;;;;;;4950788;28;20400;-91
2023/10/23 10:10:39;;;;;;;;;;;;;;;;;;4949161;28;20046;-92
2023/10/23 10:13:06;;;;;;;;;;;;;;;;;;4948609;28;19911;-92
2023/10/23 10:15:32;;;;;;;;;;;;;;;;;;4947426;28;20788;-92
2023/10/23 10:17:58;;;;;;;;;;;;;;;;;;4948382;28;19982;-94
2023/10/23 10:20:24;;;;;;;;;;;;;;;;;;4950242;28;19926;-93
2023/10/23 10:22:50;;;;;;;;;;;;;;;;;;4947645;28;19919;-93
2023/10/23 10:25:16;;;;;;;;;;;;;;;;;;4945023;28;19919;-93
2023/10/23 10:27:43;;;;;;;;;;;;;;;;;;4953848;28;19929;-93
2023/10/23 10:30:09;;;;;;;;;;;;;;;;;;4951868;28;20013;-94
2023/10/23 10:32:35;;;;;;;;;;;;;;;;;;4948266;28;19923;-94
2023/10/23 10:35:02;;;;;;;;;;;;;;;;;;4950336;28;19914;-94
2023/10/23 10:37:28;;;;;;;;;;;;;;;;;;4950994;28;19919;-94
2023/10/23 10:39:54;;;;;;;;;;;;;;;;;;4950210;28;19926;-96
2023/10/23 10:42:20;;;;;;;;;;;;;;;;;;4949595;28;19953;-94
2023/10/23 10:44:46;;;;;;;;;;;;;;;;;;4949719;28;19932;-94
2023/10/23 10:47:15;;;;;;;;;;;;;;;;;;4948553;28;19956;-93
2023/10/23 10:49:41;;;;;;;;;;;;;;;;;;4948426;28;19923;-94
2023/10/23 10:52:07;;;;;;;;;;;;;;;;;;4945473;28;19944;-93
2023/10/23 10:54:33;;;;;;;;;;;;;;;;;;4949741;28;19915;-94
2023/10/23 10:56:59;;;;;;;;;;;;;;;;;;4948597;28;19934;-94
2023/10/23 10:59:25;;;;;;;;;;;;;;;;;;4949315;28;19918;-93
2023/10/23 11:01:51;;;;;;;;;;;;;;;;;;4956156;28;19973;-94
2023/10/23 11:04:20;;;;;;;;;;;;;;;;;;4965988;28;19922;-94
2023/10/23 11:06:46;;;;;;;;;;;;;;;;;;4961854;28;19941;-94
2023/10/23 11:09:12;;;;;;;;;;;;;;;;;;4966202;28;20045;-93
2023/10/23 11:11:39;;;;;;;;;;;;;;;;;;4966249;28;19957;-92
2023/10/23 11:14:15;;;;;;;;;;;;;;;;;;4967250;28;19918;-94
2023/10/23 11:16:41;;;;;;;;;;;;;;;;;;4960774;28;19922;-95
2023/10/23 11:19:07;;;;;;;;;;;;;;;;;;4967306;28;19918;-94
2023/10/23 11:21:33;;;;;;;;;;;;;;;;;;4965253;28;19919;-94
2023/10/23 11:24:02;;;;;;;;;;;;;;;;;;4963663;28;19934;-93
2023/10/23 11:26:28;;;;;;;;;;;;;;;;;;4964671;28;19918;-94
2023/10/23 11:28:54;;;;;;;;;;;;;;;;;;4945694;28;19928;-94
2023/10/23 11:31:20;;;;;;;;;;;;;;;;;;4964290;28;20382;-93
2023/10/23 11:33:46;;;;;;;;;;;;;;;;;;4963174;28;20324;-93
2023/10/23 11:36:12;;;;;;;;;;;;;;;;;;4963936;28;20536;-93
2023/10/23 11:38:38;;;;;;;;;;;;;;;;;;4962462;28;19922;-93
2023/10/23 11:41:04;;;;;;;;;;;;;;;;;;4965076;28;20411;-93
2023/10/23 11:43:30;;;;;;;;;;;;;;;;;;4958144;28;19989;-93
2023/10/23 11:45:56;;;;;;;;;;;;;;;;;;4963331;28;19927;-93
2023/10/23 11:48:22;;;;;;;;;;;;;;;;;;4964436;28;19926;-93
2023/10/23 11:50:48;;;;;;;;;;;;;;;;;;4962315;28;19941;-92
2023/10/23 11:53:13;;;;;;;;;;;;;;;;;;4964708;28;19926;-93
2023/10/23 11:55:39;;;;;;;;;;;;;;;;;;4946514;28;19918;-93
2023/10/23 11:58:05;;;;;;;;;;;;;;;;;;4961733;28;19915;-93
2023/10/23 12:00:32;;;;;;;;;;;;;;;;;;4963495;28;19968;-93
2023/10/23 12:02:58;;;;;;;;;;;;;;;;;;4964339;28;20370;-93
2023/10/23 12:05:24;;;;;;;;;;;;;;;;;;4947085;28;20013;-93
2023/10/23 12:07:52;;;;;;;;;;;;;;;;;;4964447;28;19922;-93
2023/10/23 12:10:18;;;;;;;;;;;;;;;;;;4945927;28;19923;-93
2023/10/23 12:12:44;;;;;;;;;;;;;;;;;;4965706;28;19920;-93
2023/10/23 12:15:11;;;;;;;;;;;;;;;;;;4963047;28;20001;-93
2023/10/23 12:17:38;;;;;;;;;;;;;;;;;;4948156;28;19918;-93
2023/10/23 12:20:07;;;;;;;;;;;;;;;;;;4966162;28;19925;-94
2023/10/23 12:22:33;;;;;;;;;;;;;;;;;;4945392;28;19914;-93
2023/10/23 12:24:59;;;;;;;;;;;;;;;;;;4962102;28;19922;-93
2023/10/23 12:27:25;;;;;;;;;;;;;;;;;;4964696;28;19922;-93
2023/10/23 12:29:51;;;;;;;;;;;;;;;;;;4960340;28;20011;-92
2023/10/23 12:32:17;;;;;;;;;;;;;;;;;;4962804;28;19918;-93
2023/10/23 12:34:42;;;;;;;;;;;;;;;;;;4941767;28;19925;-93
2023/10/23 12:37:08;;;;;;;;;;;;;;;;;;4962153;28;20026;-92
2023/10/23 12:39:35;;;;;;;;;;;;;;;;;;4960767;28;19915;-93
2023/10/23 12:42:01;;;;;;;;;;;;;;;;;;4959916;28;19942;-94
2023/10/23 12:44:27;;;;;;;;;;;;;;;;;;4947834;28;19922;-94
2023/10/23 12:46:53;;;;;;;;;;;;;;;;;;4963710;28;19914;-94
2023/10/23 12:49:19;;;;;;;;;;;;;;;;;;4964574;28;19919;-94
2023/10/23 12:51:45;;;;;;;;;;;;;;;;;;4964218;28;20272;-94
2023/10/23 12:54:11;;;;;;;;;;;;;;;;;;4961911;28;20358;-93
2023/10/23 12:56:37;;;;;;;;;;;;;;;;;;4963609;28;19923;-93
2023/10/23 12:59:03;;;;;;;;;;;;;;;;;;4948661;28;20060;-93
2023/10/23 13:01:32;;;;;;;;;;;;;;;;;;4964856;28;19922;-94
2023/10/23 13:03:59;;;;;;;;;;;;;;;;;;4962685;28;19930;-94
2023/10/23 13:06:25;;;;;;;;;;;;;;;;;;4964314;28;19925;-94
2023/10/23 13:08:51;;;;;;;;;;;;;;;;;;4962112;28;20560;-94
2023/10/23 13:11:20;;;;;;;;;;;;;;;;;;4949880;28;19914;-94
2023/10/23 13:13:46;;;;;;;;;;;;;;;;;;4961892;28;19918;-95
2023/10/23 13:16:12;;;;;;;;;;;;;;;;;;4962505;28;20064;-94
2023/10/23 13:18:38;;;;;;;;;;;;;;;;;;4957792;28;20401;-94
2023/10/23 13:21:04;;;;;;;;;;;;;;;;;;4959167;28;19915;-93
2023/10/23 13:23:32;;;;;;;;;;;;;;;;;;4946780;28;20690;-95
2023/10/23 13:25:58;;;;;;;;;;;;;;;;;;4963467;28;19922;-93
2023/10/23 13:28:24;;;;;;;;;;;;;;;;;;4966702;28;19914;-94
2023/10/23 13:30:50;;;;;;;;;;;;;;;;;;4942705;28;19914;-94
2023/10/23 13:33:18;;;;;;;;;;;;;;;;;;4957055;28;19919;-94
2023/10/23 13:35:50;;;;;;;;;;;;;;;;;;4959334;28;20821;-94
2023/10/23 13:38:16;;;;;;;;;;;;;;;;;;4941422;28;19918;-92
2023/10/23 13:40:42;;;;;;;;;;;;;;;;;;4944700;28;19918;-92
2023/10/23 13:43:08;;;;;;;;;;;;;;;;;;4959410;28;20427;-92
2023/10/23 13:45:34;;;;;;;;;;;;;;;;;;4960694;28;20457;-92
2023/10/23 13:48:00;;;;;;;;;;;;;;;;;;4942343;28;20397;-92
2023/10/23 13:50:27;;;;;;;;;;;;;;;;;;4963278;28;20006;-92
2023/10/23 13:52:53;;;;;;;;;;;;;;;;;;4944232;28;19960;-93
2023/10/23 13:55:20;;;;;;;;;;;;;;;;;;4962100;28;20368;-93
2023/10/23 13:57:46;;;;;;;;;;;;;;;;;;4962216;28;19970;-93
2023/10/23 14:00:12;;;;;;;;;;;;;;;;;;4944177;28;19969;-93
2023/10/23 14:02:38;;;;;;;;;;;;;;;;;;4964254;28;19933;-93
2023/10/23 14:05:07;;;;;;;;;;;;;;;;;;4947463;28;19922;-93
2023/10/23 14:07:33;;;;;;;;;;;;;;;;;;4944872;28;19974;-92
2023/10/23 14:09:58;;;;;;;;;;;;;;;;;;4958177;28;20025;-93
2023/10/23 14:12:25;;;;;;;;;;;;;;;;;;4967282;28;19953;-92
2023/10/23 14:14:51;;;;;;;;;;;;;;;;;;4965217;28;19946;-92
2023/10/23 14:17:17;;;;;;;;;;;;;;;;;;4965529;28;19919;-92
2023/10/23 14:19:43;;;;;;;;;;;;;;;;;;4964483;28;19930;-93
2023/10/23 14:22:09;;;;;;;;;;;;;;;;;;4964416;28;20060;-92
2023/10/23 14:24:35;;;;;;;;;;;;;;;;;;4966203;28;20341;-92
2023/10/23 14:27:01;;;;;;;;;;;;;;;;;;4965859;28;19989;-92
2023/10/23 14:29:27;;;;;;;;;;;;;;;;;;4964125;28;19970;-92
2023/10/23 14:31:53;;;;;;;;;;;;;;;;;;4965778;28;20437;-92
2023/10/23 14:34:19;;;;;;;;;;;;;;;;;;4965616;28;20344;-93
2023/10/23 14:36:45;;;;;;;;;;;;;;;;;;4962043;28;19922;-92
2023/10/23 14:39:14;;;;;;;;;;;;;;;;;;4964111;28;20475;-93
2023/10/23 14:41:40;;;;;;;;;;;;;;;;;;4965785;28;19925;-93
2023/10/23 14:44:06;;;;;;;;;;;;;;;;;;4965181;28;19919;-92
2023/10/23 14:46:32;;;;;;;;;;;;;;;;;;4962794;28;19928;-92
2023/10/23 14:48:58;;;;;;;;;;;;;;;;;;4965753;28;19925;-91
2023/10/23 14:51:25;;;;;;;;;;;;;;;;;;4947801;28;20394;-91
2023/10/23 14:53:51;;;;;;;;;;;;;;;;;;4965932;28;19918;-91
2023/10/23 14:56:17;;;;;;;;;;;;;;;;;;4964837;28;19918;-91
2023/10/23 14:58:43;;;;;;;;;;;;;;;;;;4967714;28;19969;-92
2023/10/23 15:01:09;;;;;;;;;;;;;;;;;;4953479;28;19915;-92
2023/10/23 15:03:35;;;;;;;;;;;;;;;;;;4973562;28;20009;-92
2023/10/23 15:06:01;;;;;;;;;;;;;;;;;;4968237;28;19953;-92
2023/10/23 15:08:27;;;;;;;;;;;;;;;;;;4972440;28;19918;-92
2023/10/23 15:10:53;;;;;;;;;;;;;;;;;;4952111;28;19914;-92
2023/10/23 15:13:19;;;;;;;;;;;;;;;;;;4948016;28;19918;-92
2023/10/23 15:15:48;;;;;;;;;;;;;;;;;;4966366;28;19918;-92
2023/10/23 15:18:14;;;;;;;;;;;;;;;;;;4966628;28;19918;-92
2023/10/23 15:20:40;;;;;;;;;;;;;;;;;;4964724;28;19914;-92
2023/10/23 15:23:06;;;;;;;;;;;;;;;;;;4947673;28;19926;-92
2023/10/23 15:25:32;;;;;;;;;;;;;;;;;;4965125;28;19926;-92
2023/10/23 15:27:58;;;;;;;;;;;;;;;;;;4959254;28;19944;-92
2023/10/23 15:30:27;;;;;;;;;;;;;;;;;;4948633;28;19964;-92
2023/10/23 15:32:53;;;;;;;;;;;;;;;;;;4965503;28;19946;-92
2023/10/23 15:35:19;;;;;;;;;;;;;;;;;;4967112;28;19922;-92
2023/10/23 15:37:45;;;;;;;;;;;;;;;;;;4963604;28;20360;-92
2023/10/23 15:40:11;;;;;;;;;;;;;;;;;;4949803;28;19918;-93
2023/10/23 15:42:37;;;;;;;;;;;;;;;;;;4963677;28;20372;-92
2023/10/23 15:45:03;;;;;;;;;;;;;;;;;;4962187;28;19934;-92
2023/10/23 15:47:29;;;;;;;;;;;;;;;;;;4962529;28;19918;-92
2023/10/23 15:49:55;;;;;;;;;;;;;;;;;;4963423;28;19918;-92
2023/10/23 15:52:21;;;;;;;;;;;;;;;;;;4961709;28;19969;-92
2023/10/23 15:54:47;;;;;;;;;;;;;;;;;;4963037;28;20374;-92
2023/10/23 15:57:13;;;;;;;;;;;;;;;;;;4962914;28;19922;-92
2023/10/23 15:59:39;;;;;;;;;;;;;;;;;;4964878;28;19950;-91
2023/10/23 16:02:05;;;;;;;;;;;;;;;;;;4964237;28;19915;-90
2023/10/23 16:04:31;;;;;;;;;;;;;;;;;;4965535;28;20017;-91
2023/10/23 16:06:57;;;;;;;;;;;;;;;;;;4952419;28;19933;-90
2023/10/23 16:09:23;;;;;;;;;;;;;;;;;;4965553;28;19930;-91
2023/10/23 16:11:49;;;;;;;;;;;;;;;;;;4958529;28;19923;-90
2023/10/23 16:14:15;;;;;;;;;;;;;;;;;;4944452;28;19922;-91
2023/10/23 16:16:41;;;;;;;;;;;;;;;;;;4938710;28;19926;-90
2023/10/23 16:19:07;;;;;;;;;;;;;;;;;;4948167;28;20375;-92
2023/10/23 16:21:45;;;;;;;;;;;;;;;;;;4956325;28;19921;-90
2023/10/23 16:24:12;;;;;;;;;;;;;;;;;;4959872;28;19925;-92
2023/10/23 16:26:38;;;;;;;;;;;;;;;;;;4962105;28;19973;-91
2023/10/23 16:29:04;;;;;;;;;;;;;;;;;;4960950;28;19910;-91
2023/10/23 16:31:30;;;;;;;;;;;;;;;;;;4942637;28;19922;-91
2023/10/23 16:33:56;;;;;;;;;;;;;;;;;;4948694;28;19919;-90
2023/10/23 16:36:22;;;;;;;;;;;;;;;;;;4961628;28;20016;-91
2023/10/23 16:38:48;;;;;;;;;;;;;;;;;;4961193;28;19982;-91
2023/10/23 16:41:14;;;;;;;;;;;;;;;;;;4945433;28;19914;-91
2023/10/23 16:43:40;;;;;;;;;;;;;;;;;;4965618;28;19939;-91
2023/10/23 16:46:06;;;;;;;;;;;;;;;;;;4959931;28;19918;-90
2023/10/23 16:48:32;;;;;;;;;;;;;;;;;;4961691;28;19922;-90
2023/10/23 16:50:58;;;;;;;;;;;;;;;;;;4961074;28;19946;-91
2023/10/23 16:53:27;;;;;;;;;;;;;;;;;;4958707;28;19915;-91
2023/10/23 16:55:53;;;;;;;;;;;;;;;;;;4963575;28;20320;-90
2023/10/23 16:58:23;;;;;;;;;;;;;;;;;;4946052;28;19925;-90
2023/10/23 17:00:49;;;;;;;;;;;;;;;;;;4947142;28;19924;-91
2023/10/23 17:03:15;;;;;;;;;;;;;;;;;;4964319;28;19974;-91
2023/10/23 17:05:41;;;;;;;;;;;;;;;;;;4943036;28;20692;-90
2023/10/23 17:08:07;;;;;;;;;;;;;;;;;;4945549;28;19922;-90
2023/10/23 17:10:33;;;;;;;;;;;;;;;;;;4960914;28;19989;-91
2023/10/23 17:12:59;;;;;;;;;;;;;;;;;;4956869;28;20343;-91
2023/10/23 17:15:25;;;;;;;;;;;;;;;;;;4941468;28;20148;-91
2023/10/23 17:17:53;;;;;;;;;;;;;;;;;;4961345;28;19921;-92
2023/10/23 17:20:19;;;;;;;;;;;;;;;;;;4946734;28;20272;-91
2023/10/23 17:22:45;;;;;;;;;;;;;;;;;;4966965;28;19941;-91
2023/10/23 17:25:11;;;;;;;;;;;;;;;;;;4948154;28;19926;-92
2023/10/23 17:27:37;;;;;;;;;;;;;;;;;;4963836;28;20490;-91
2023/10/23 17:30:03;;;;;;;;;;;;;;;;;;4960929;28;19930;-92
2023/10/23 17:32:29;;;;;;;;;;;;;;;;;;4957073;28;19981;-92
2023/10/23 17:35:04;;;;;;;;;;;;;;;;;;4959957;28;19915;-92
2023/10/23 17:37:30;;;;;;;;;;;;;;;;;;4960836;28;19914;-93
2023/10/23 17:39:56;;;;;;;;;;;;;;;;;;4958260;28;19929;-92
2023/10/23 17:42:23;;;;;;;;;;;;;;;;;;4962674;28;19918;-92
2023/10/23 17:44:49;;;;;;;;;;;;;;;;;;4959708;28;19942;-93
2023/10/23 17:47:14;;;;;;;;;;;;;;;;;;4943810;28;19922;-93
2023/10/23 17:49:40;;;;;;;;;;;;;;;;;;4966600;28;19915;-93
2023/10/23 17:52:06;;;;;;;;;;;;;;;;;;4960854;28;19915;-92
2023/10/23 17:54:32;;;;;;;;;;;;;;;;;;4951244;28;20016;-92
2023/10/23 17:57:01;;;;;;;;;;;;;;;;;;4949940;28;20355;-92
2023/10/23 17:59:27;;;;;;;;;;;;;;;;;;4949840;28;19926;-92
2023/10/23 18:01:53;;;;;;;;;;;;;;;;;;4949884;28;19946;-92
2023/10/23 18:04:19;;;;;;;;;;;;;;;;;;4965288;28;19982;-92
2023/10/23 18:06:45;;;;;;;;;;;;;;;;;;4968027;28;19918;-92
2023/10/23 18:09:11;;;;;;;;;;;;;;;;;;4965727;28;19921;-92
2023/10/23 18:11:40;;;;;;;;;;;;;;;;;;4949797;28;19915;-92
2023/10/23 18:14:06;;;;;;;;;;;;;;;;;;4963536;28;19981;-92
2023/10/23 18:16:32;;;;;;;;;;;;;;;;;;4964820;28;20379;-92
2023/10/23 18:19:03;;;;;;;;;;;;;;;;;;4945319;28;19921;-89
2023/10/23 18:21:29;;;;;;;;;;;;;;;;;;4963696;28;19984;-92
2023/10/23 18:23:55;;;;;;;;;;;;;;;;;;4965173;28;19954;-91
2023/10/23 18:26:21;;;;;;;;;;;;;;;;;;4961186;28;20108;-92
2023/10/23 18:28:47;;;;;;;;;;;;;;;;;;4965707;28;19925;-92
2023/10/23 18:31:13;;;;;;;;;;;;;;;;;;4963174;28;20001;-92
2023/10/23 18:33:39;;;;;;;;;;;;;;;;;;4965133;28;20450;-92
2023/10/23 18:36:07;;;;;;;;;;;;;;;;;;4951129;28;20013;-91
2023/10/23 18:41:29;;;;;;;;;;;;;;;;;;4945627;28;19923;-91
2023/10/23 18:43:54;;;;;;;;;;;;;;;;;;4962676;28;19924;-92
2023/10/23 18:46:21;;;;;;;;;;;;;;;;;;4965173;28;20976;-91
2023/10/23 18:48:47;;;;;;;;;;;;;;;;;;4962839;28;19954;-90
2023/10/23 18:51:13;;;;;;;;;;;;;;;;;;4963662;28;20027;-90
2023/10/23 18:53:39;;;;;;;;;;;;;;;;;;4963799;28;19915;-90
2023/10/23 18:56:05;;;;;;;;;;;;;;;;;;4964311;28;20005;-90
2023/10/23 18:58:31;;;;;;;;;;;;;;;;;;4943917;28;19990;-90
2023/10/23 19:00:57;;;;;;;;;;;;;;;;;;4961483;28;19969;-90
2023/10/23 19:03:23;;;;;;;;;;;;;;;;;;4949832;28;19931;-90
2023/10/23 19:05:49;;;;;;;;;;;;;;;;;;4944345;28;19958;-90
2023/10/23 19:08:16;;;;;;;;;;;;;;;;;;4964089;28;20391;-91
2023/10/23 19:10:42;;;;;;;;;;;;;;;;;;4958264;28;20262;-90
2023/10/23 19:13:08;;;;;;;;;;;;;;;;;;4962391;28;19914;-91
2023/10/23 19:15:34;;;;;;;;;;;;;;;;;;4954555;28;20017;-90
2023/10/23 19:18:02;;;;;;;;;;;;;;;;;;4966223;28;20002;-90
2023/10/23 19:20:28;;;;;;;;;;;;;;;;;;4963612;28;19926;-91
2023/10/23 19:22:54;;;;;;;;;;;;;;;;;;4964077;28;20200;-90
2023/10/23 19:25:21;;;;;;;;;;;;;;;;;;4960965;28;19932;-89
2023/10/23 19:27:47;;;;;;;;;;;;;;;;;;4958288;28;19914;-91
2023/10/23 19:30:13;;;;;;;;;;;;;;;;;;4963400;28;19962;-90
2023/10/23 19:32:40;;;;;;;;;;;;;;;;;;4960462;28;19914;-90
2023/10/23 19:35:12;;;;;;;;;;;;;;;;;;4959430;28;20306;-91
2023/10/23 19:37:40;;;;;;;;;;;;;;;;;;4944217;28;20398;-90
2023/10/23 19:40:06;;;;;;;;;;;;;;;;;;4942621;28;19915;-90
2023/10/23 19:42:32;;;;;;;;;;;;;;;;;;4960663;28;19918;-90
2023/10/23 19:45:00;;;;;;;;;;;;;;;;;;4960768;28;19927;-90
2023/10/23 19:47:26;;;;;;;;;;;;;;;;;;4959325;28;19919;-90
2023/10/23 19:49:52;;;;;;;;;;;;;;;;;;4961507;28;20022;-92
2023/10/23 19:52:18;;;;;;;;;;;;;;;;;;4941753;28;20045;-92
2023/10/23 19:54:44;;;;;;;;;;;;;;;;;;4943248;28;19950;-92
2023/10/23 19:57:10;;;;;;;;;;;;;;;;;;4961252;28;20688;-92
2023/10/23 19:59:37;;;;;;;;;;;;;;;;;;4962318;28;20379;-92
2023/10/23 20:02:03;;;;;;;;;;;;;;;;;;4962011;28;20388;-91
2023/10/23 20:04:29;;;;;;;;;;;;;;;;;;4949343;28;20399;-92
2023/10/23 20:06:55;;;;;;;;;;;;;;;;;;4957571;28;19919;-92
2023/10/23 20:09:24;;;;;;;;;;;;;;;;;;4958132;28;20437;-91
2023/10/23 20:11:51;;;;;;;;;;;;;;;;;;4959207;28;20000;-92
2023/10/23 20:14:17;;;;;;;;;;;;;;;;;;4942054;28;19915;-92
2023/10/23 20:16:43;;;;;;;;;;;;;;;;;;4957615;28;19957;-92
2023/10/23 20:19:11;;;;;;;;;;;;;;;;;;4957746;28;19925;-92
2023/10/23 20:21:37;;;;;;;;;;;;;;;;;;4959608;28;20291;-92
2023/10/23 20:24:03;;;;;;;;;;;;;;;;;;4958357;28;19930;-92
2023/10/23 20:26:29;;;;;;;;;;;;;;;;;;4957120;28;19923;-91
2023/10/23 20:28:55;;;;;;;;;;;;;;;;;;4955724;28;19922;-92
2023/10/23 20:31:21;;;;;;;;;;;;;;;;;;4961286;28;19990;-92
2023/10/23 20:33:51;;;;;;;;;;;;;;;;;;4956834;28;20810;-92
2023/10/23 20:36:20;;;;;;;;;;;;;;;;;;4960446;28;20578;-92
2023/10/23 20:38:46;;;;;;;;;;;;;;;;;;4955191;28;20367;-91
2023/10/23 20:41:12;;;;;;;;;;;;;;;;;;4943014;28;20311;-92
2023/10/23 20:43:38;;;;;;;;;;;;;;;;;;4957999;28;19918;-91
2023/10/23 20:46:04;;;;;;;;;;;;;;;;;;4956327;28;19918;-91
2023/10/23 20:48:30;;;;;;;;;;;;;;;;;;4955333;28;19960;-93